createdAt,value
2023-05-14T00:01:53.527Z,3.50
2023-05-14T00:04:21.557Z,3.47
2023-05-14T00:06:49.532Z,3.90
2023-05-14T00:09:17.448Z,3.73
2023-05-14T00:11:46.764Z,3.10
2023-05-14T00:14:14.672Z,6.07
2023-05-14T00:16:42.595Z,3.37
2023-05-14T00:19:10.666Z,3.40
2023-05-14T00:21:38.799Z,3.57
2023-05-14T00:24:07.045Z,3.40
2023-05-14T00:26:35.015Z,4.10
2023-05-14T00:29:04.385Z,4.77
2023-05-14T00:31:32.347Z,2.93
2023-05-14T00:34:00.280Z,3.17
2023-05-14T00:36:28.220Z,3.80
2023-05-14T00:38:56.154Z,3.23
2023-05-14T00:41:24.209Z,3.60
2023-05-14T00:43:52.143Z,4.03
2023-05-14T00:46:21.479Z,3.50
2023-05-14T00:48:49.516Z,3.97
2023-05-14T00:51:17.526Z,3.00
2023-05-14T00:53:45.432Z,5.50
2023-05-14T00:56:13.465Z,3.70
2023-05-14T00:58:41.544Z,3.53
2023-05-14T01:01:09.967Z,3.57
2023-05-14T01:03:39.705Z,5.23
2023-05-14T01:06:12.748Z,3.77
2023-05-14T01:08:48.612Z,3.10
2023-05-14T01:11:19.522Z,3.57
2023-05-14T01:13:52.292Z,4.17
2023-05-14T01:16:21.081Z,4.37
2023-05-14T01:18:52.634Z,4.03
2023-05-14T01:21:35.235Z,3.87
2023-05-14T01:24:03.208Z,4.73
2023-05-14T01:26:31.573Z,3.40
2023-05-14T01:29:05.616Z,3.93
2023-05-14T01:31:35.189Z,6.30
2023-05-14T01:34:04.086Z,7.50
2023-05-14T01:36:34.079Z,4.87
2023-05-14T01:39:02.890Z,5.70
2023-05-14T01:41:31.079Z,3.70
2023-05-14T01:43:59.205Z,4.63
2023-05-14T01:46:27.127Z,3.20
2023-05-14T01:48:55.109Z,4.97
2023-05-14T01:51:23.001Z,5.63
2023-05-14T01:53:52.281Z,5.77
2023-05-14T01:56:21.773Z,4.40
2023-05-14T01:58:49.705Z,4.80
2023-05-14T02:01:18.037Z,4.57
2023-05-14T02:03:46.039Z,5.47
2023-05-14T02:06:14.015Z,4.97
2023-05-14T02:08:41.983Z,3.73
2023-05-14T02:11:11.308Z,3.30
2023-05-14T02:13:39.210Z,5.43
2023-05-14T02:16:07.765Z,3.43
2023-05-14T02:18:35.750Z,6.10
2023-05-14T02:21:03.664Z,3.93
2023-05-14T02:23:41.134Z,5.03
2023-05-14T02:26:12.340Z,5.60
2023-05-14T02:28:40.295Z,5.33
2023-05-14T02:31:08.285Z,4.30
2023-05-14T02:33:36.334Z,3.20
2023-05-14T02:36:04.530Z,4.63
2023-05-14T02:38:32.424Z,5.90
2023-05-14T02:41:00.306Z,5.23
2023-05-14T02:43:29.775Z,6.40
2023-05-14T02:45:57.660Z,4.13
2023-05-14T02:48:26.184Z,5.07
2023-05-14T02:50:54.101Z,3.27
2023-05-14T02:53:21.999Z,3.67
2023-05-14T02:55:49.945Z,4.17
2023-05-14T02:58:17.837Z,3.70
2023-05-14T03:00:48.384Z,5.13
2023-05-14T03:03:17.048Z,5.53
2023-05-14T03:05:45.305Z,4.53
2023-05-14T03:08:13.207Z,3.23
2023-05-14T03:10:41.107Z,4.70
2023-05-14T03:13:09.018Z,5.37
2023-05-14T03:15:36.970Z,3.67
2023-05-14T03:18:06.777Z,3.90
2023-05-14T03:20:34.730Z,3.77
2023-05-14T03:23:02.744Z,3.63
2023-05-14T03:25:30.645Z,3.07
2023-05-14T03:27:58.597Z,3.67
2023-05-14T03:30:26.791Z,4.27
2023-05-14T03:32:54.941Z,4.23
2023-05-14T03:35:24.321Z,5.00
2023-05-14T03:37:53.061Z,5.00
2023-05-14T03:40:21.628Z,4.53
2023-05-14T03:42:49.761Z,4.57
2023-05-14T03:45:17.689Z,3.73
2023-05-14T03:47:45.727Z,3.80
2023-05-14T03:50:13.880Z,4.53
2023-05-14T03:52:43.626Z,3.97
2023-05-14T03:55:11.701Z,3.83
2023-05-14T03:57:39.623Z,3.70
2023-05-14T04:00:08.757Z,4.43
2023-05-14T04:02:36.733Z,5.47
2023-05-14T04:05:05.392Z,4.47
2023-05-14T04:07:33.283Z,4.20
2023-05-14T04:10:04.522Z,7.43
2023-05-14T04:12:32.755Z,3.20
2023-05-14T04:15:00.688Z,3.37
2023-05-14T04:17:28.617Z,4.67
2023-05-14T04:19:56.564Z,3.67
2023-05-14T04:22:24.457Z,4.43
2023-05-14T04:24:53.226Z,3.83
2023-05-14T04:27:22.617Z,5.37
2023-05-14T04:29:50.825Z,3.83
2023-05-14T04:32:18.799Z,3.47
2023-05-14T04:34:46.931Z,3.43
2023-05-14T04:37:14.929Z,3.90
2023-05-14T04:39:43.616Z,3.60
2023-05-14T04:42:11.574Z,6.83
2023-05-14T04:44:40.853Z,4.60
2023-05-14T04:47:08.751Z,5.30
2023-05-14T04:49:36.661Z,5.23
2023-05-14T04:52:04.668Z,4.60
2023-05-14T04:54:32.753Z,4.37
2023-05-14T04:57:03.249Z,4.87
2023-05-14T04:59:31.327Z,4.10
2023-05-14T05:02:00.740Z,3.77
2023-05-14T05:04:29.092Z,4.50
2023-05-14T05:06:56.992Z,3.97
2023-05-14T05:09:24.893Z,3.70
2023-05-14T05:11:52.779Z,3.73
2023-05-14T05:14:20.700Z,3.43
2023-05-14T05:16:48.580Z,3.47
2023-05-14T05:19:17.988Z,3.53
2023-05-14T05:21:46.240Z,5.10
2023-05-14T05:24:14.173Z,3.50
2023-05-14T05:26:42.123Z,4.10
2023-05-14T05:29:10.026Z,3.70
2023-05-14T05:31:38.136Z,4.73
2023-05-14T05:34:06.086Z,4.17
2023-05-14T05:36:35.687Z,3.20
2023-05-14T05:39:03.587Z,3.30
2023-05-14T05:41:31.500Z,4.30
2023-05-14T05:43:59.368Z,3.67
2023-05-14T05:46:27.272Z,3.17
2023-05-14T05:48:55.179Z,3.50
2023-05-14T05:51:23.156Z,4.47
2023-05-14T05:53:52.505Z,3.70
2023-05-14T05:56:21.194Z,4.57
2023-05-14T05:58:49.357Z,2.70
2023-05-14T06:01:17.248Z,3.07
2023-05-14T06:03:47.656Z,3.37
2023-05-14T06:06:16.631Z,3.63
2023-05-14T06:08:44.516Z,3.33
2023-05-14T06:11:13.843Z,2.90
2023-05-14T06:13:41.710Z,4.07
2023-05-14T06:16:10.080Z,3.33
2023-05-14T06:18:38.084Z,4.10
2023-05-14T06:21:06.082Z,4.07
2023-05-14T06:23:34.208Z,2.57
2023-05-14T06:26:02.114Z,5.03
2023-05-14T06:28:31.409Z,2.90
2023-05-14T06:30:59.322Z,3.03
2023-05-14T06:33:30.912Z,2.93
2023-05-14T06:35:59.744Z,2.87
2023-05-14T06:38:27.666Z,3.10
2023-05-14T06:40:55.657Z,2.87
2023-05-14T06:43:23.549Z,3.40
2023-05-14T06:45:53.178Z,3.53
2023-05-14T06:48:21.706Z,3.90
2023-05-14T06:50:50.307Z,3.07
2023-05-14T06:53:18.221Z,2.67
2023-05-14T06:55:46.149Z,3.37
2023-05-14T06:58:14.116Z,3.33
2023-05-14T07:00:42.081Z,2.90
2023-05-14T07:03:11.462Z,2.70
2023-05-14T07:05:40.868Z,3.10
2023-05-14T07:08:08.885Z,7.03
2023-05-14T07:10:36.874Z,2.80
2023-05-14T07:13:04.839Z,2.30
2023-05-14T07:15:32.791Z,4.63
2023-05-14T07:18:00.722Z,4.63
2023-05-14T07:20:30.188Z,2.30
2023-05-14T07:22:58.107Z,2.90
2023-05-14T07:25:26.000Z,3.93
2023-05-14T07:27:53.974Z,2.47
2023-05-14T07:30:22.429Z,3.07
2023-05-14T07:32:50.582Z,2.40
2023-05-14T07:35:18.780Z,4.07
2023-05-14T07:37:48.186Z,2.47
2023-05-14T07:40:16.385Z,5.40
2023-05-14T07:42:44.294Z,3.00
2023-05-14T07:45:12.682Z,2.27
2023-05-14T07:47:40.889Z,2.73
2023-05-14T07:50:09.781Z,2.50
2023-05-14T07:52:37.695Z,3.90
2023-05-14T07:55:08.487Z,2.67
2023-05-14T07:57:36.522Z,2.47
2023-05-14T08:00:04.886Z,2.80
2023-05-14T08:02:32.842Z,2.27
2023-05-14T08:05:00.886Z,4.53
2023-05-14T08:07:30.146Z,3.70
2023-05-14T08:09:58.235Z,3.10
2023-05-14T08:12:28.800Z,2.97
2023-05-14T08:14:56.837Z,2.27
2023-05-14T08:17:24.776Z,4.33
2023-05-14T08:19:52.738Z,3.13
2023-05-14T08:22:20.636Z,3.80
2023-05-14T08:24:51.525Z,2.20
2023-05-14T08:27:19.448Z,2.47
2023-05-14T08:29:48.742Z,3.20
2023-05-14T08:32:23.431Z,2.47
2023-05-14T08:34:52.391Z,3.53
2023-05-14T08:37:20.480Z,3.53
2023-05-14T08:39:48.478Z,3.00
2023-05-14T08:42:17.007Z,3.83
2023-05-14T08:44:51.005Z,5.87
2023-05-14T08:47:19.801Z,4.17
2023-05-14T08:49:49.628Z,3.73
2023-05-14T08:52:18.814Z,2.57
2023-05-14T08:54:48.040Z,4.10
2023-05-14T08:57:16.500Z,2.83
2023-05-14T08:59:44.393Z,2.13
2023-05-14T09:02:16.943Z,2.07
2023-05-14T09:04:45.277Z,2.93
2023-05-14T09:07:13.388Z,3.10
2023-05-14T09:09:42.089Z,3.00
2023-05-14T09:12:10.721Z,3.97
2023-05-14T09:14:38.738Z,2.80
2023-05-14T09:17:06.673Z,2.93
2023-05-14T09:19:36.110Z,5.07
2023-05-14T09:22:09.685Z,2.93
2023-05-14T09:24:38.861Z,4.07
2023-05-14T09:27:07.835Z,6.63
2023-05-14T09:29:39.253Z,3.83
2023-05-14T09:32:10.550Z,3.33
2023-05-14T09:34:39.922Z,3.33
2023-05-14T09:37:09.640Z,2.93
2023-05-14T09:39:38.666Z,2.27
2023-05-14T09:42:07.303Z,3.13
2023-05-14T09:44:36.464Z,3.65
2023-05-14T09:47:04.856Z,2.67
2023-05-14T09:49:32.779Z,3.25
2023-05-14T09:52:03.821Z,2.42
2023-05-14T09:54:33.562Z,3.15
2023-05-14T09:57:01.596Z,3.00
2023-05-14T09:59:29.867Z,4.25
2023-05-14T10:01:59.292Z,3.33
2023-05-14T10:04:27.611Z,3.03
2023-05-14T10:06:56.731Z,4.30
2023-05-14T10:09:28.596Z,2.88
2023-05-14T10:12:00.554Z,3.97
2023-05-14T10:14:33.605Z,3.10
2023-05-14T10:17:03.030Z,2.63
2023-05-14T10:19:35.224Z,2.35
2023-05-14T10:22:06.038Z,3.53
2023-05-14T10:24:36.101Z,3.42
2023-05-14T10:27:04.495Z,4.97
2023-05-14T10:29:36.526Z,2.20
2023-05-14T10:32:07.189Z,2.78
2023-05-14T10:34:38.728Z,2.67
2023-05-14T10:37:09.304Z,5.53
2023-05-14T10:39:48.824Z,2.58
2023-05-14T10:42:19.359Z,2.67
2023-05-14T10:44:53.136Z,2.60
2023-05-14T10:47:23.213Z,3.05
2023-05-14T10:49:53.183Z,4.40
2023-05-14T10:52:21.411Z,5.60
2023-05-14T10:54:54.754Z,2.78
2023-05-14T10:57:23.887Z,2.70
2023-05-14T10:59:55.193Z,3.00
2023-05-14T11:02:25.436Z,2.78
2023-05-14T11:04:59.678Z,3.08
2023-05-14T11:07:32.295Z,2.47
2023-05-14T11:10:06.388Z,6.75
2023-05-14T11:12:35.078Z,4.78
2023-05-14T11:15:05.852Z,4.05
2023-05-14T11:17:34.048Z,3.67
2023-05-14T11:20:02.110Z,4.50
2023-05-14T11:22:30.408Z,4.97
2023-05-14T11:24:58.608Z,3.80
2023-05-14T11:27:27.979Z,3.20
2023-05-14T11:30:01.038Z,4.65
2023-05-14T11:32:29.058Z,3.17
2023-05-14T11:34:57.000Z,4.53
2023-05-14T11:37:25.017Z,4.40
2023-05-14T11:39:54.636Z,2.38
2023-05-14T11:42:23.817Z,4.55
2023-05-14T11:44:54.056Z,10.90
2023-05-14T11:47:22.829Z,5.10
2023-05-14T11:49:50.871Z,3.83
2023-05-14T11:52:22.021Z,2.67
2023-05-14T11:54:51.012Z,2.83
2023-05-14T11:57:20.959Z,4.43
2023-05-14T11:59:49.709Z,7.20
2023-05-14T12:02:19.885Z,8.32
2023-05-14T12:04:52.253Z,22.75
2023-05-14T12:07:20.675Z,27.35
2023-05-14T12:09:49.946Z,48.47
2023-05-14T12:12:19.911Z,84.38
2023-05-14T12:14:48.134Z,93.38
2023-05-14T12:17:18.981Z,103.43
2023-05-14T12:19:49.286Z,79.93
2023-05-14T12:22:19.875Z,60.38
2023-05-14T12:24:54.562Z,51.03
2023-05-14T12:27:23.616Z,29.05
2023-05-14T12:29:53.494Z,29.95
2023-05-14T12:32:22.806Z,8.05
2023-05-14T12:34:50.719Z,20.20
2023-05-14T12:37:19.336Z,17.42
2023-05-14T12:39:47.249Z,15.98
2023-05-14T12:42:16.070Z,14.15
2023-05-14T12:44:43.975Z,12.55
2023-05-14T12:47:11.934Z,11.43
2023-05-14T12:49:41.312Z,9.80
2023-05-14T12:54:45.146Z,11.55
2023-05-14T12:57:13.131Z,11.10
2023-05-14T12:59:41.115Z,9.27
2023-05-14T13:02:09.417Z,12.05
2023-05-14T13:04:37.418Z,15.43
2023-05-14T13:07:08.910Z,22.20
2023-05-14T13:09:36.800Z,18.35
2023-05-14T13:12:05.148Z,4.57
2023-05-14T13:14:33.026Z,5.13
2023-05-14T13:17:01.003Z,16.48
2023-05-14T13:19:28.958Z,4.10
2023-05-14T13:21:56.859Z,8.98
2023-05-14T13:24:26.253Z,8.30
2023-05-14T13:26:54.199Z,9.93
2023-05-14T13:29:22.118Z,10.30
2023-05-14T13:31:49.994Z,7.25
2023-05-14T13:34:17.908Z,5.88
2023-05-14T13:36:47.190Z,7.95
2023-05-14T13:39:15.623Z,4.15
2023-05-14T13:41:45.551Z,6.05
2023-05-14T13:44:13.452Z,6.57
2023-05-14T13:46:41.424Z,5.97
2023-05-14T13:49:09.424Z,5.28
2023-05-14T13:51:37.363Z,6.60
2023-05-14T13:54:05.298Z,5.15
2023-05-14T13:56:33.276Z,5.35
2023-05-14T13:59:03.535Z,4.75
2023-05-14T14:01:31.896Z,5.65
2023-05-14T14:04:00.321Z,5.75
2023-05-14T14:06:28.600Z,4.68
2023-05-14T14:08:56.482Z,2.90
2023-05-14T14:11:24.447Z,3.47
2023-05-14T14:13:52.373Z,4.57
2023-05-14T14:16:21.742Z,3.05
2023-05-14T14:18:49.714Z,4.65
2023-05-14T14:21:18.568Z,3.85
2023-05-14T14:23:47.337Z,3.75
2023-05-14T14:26:15.896Z,6.00
2023-05-14T14:28:43.885Z,2.97
2023-05-14T14:31:11.874Z,3.28
2023-05-14T14:33:41.176Z,2.47
2023-05-14T14:36:09.380Z,4.10
2023-05-14T14:38:37.555Z,3.63
2023-05-14T14:41:07.168Z,2.78
2023-05-14T14:43:35.180Z,2.85
2023-05-14T14:46:03.158Z,2.78
2023-05-14T14:48:34.240Z,4.03
2023-05-14T14:51:03.555Z,2.63
2023-05-14T14:53:31.878Z,3.15
2023-05-14T14:56:00.619Z,3.90
2023-05-14T14:58:28.853Z,3.75
2023-05-14T15:00:57.996Z,5.55
2023-05-14T15:03:26.697Z,4.10
2023-05-14T15:05:54.940Z,3.70
2023-05-14T15:08:26.954Z,2.88
2023-05-14T15:10:55.063Z,2.75
2023-05-14T15:13:23.276Z,3.30
2023-05-14T15:15:51.842Z,2.92
2023-05-14T15:18:19.825Z,4.15
2023-05-14T15:20:47.773Z,2.80
2023-05-14T15:23:15.691Z,4.57
2023-05-14T15:25:45.020Z,3.45
2023-05-14T15:28:13.009Z,2.72
2023-05-14T15:30:40.896Z,3.78
2023-05-14T15:33:09.280Z,3.53
2023-05-14T15:35:37.607Z,2.53
2023-05-14T15:38:05.579Z,5.68
2023-05-14T15:40:35.024Z,2.55
2023-05-14T15:43:04.767Z,3.25
2023-05-14T15:45:32.824Z,4.57
2023-05-14T15:48:01.042Z,2.72
2023-05-14T15:50:28.991Z,5.05
2023-05-14T15:52:57.061Z,3.30
2023-05-14T15:55:24.997Z,3.70
2023-05-14T15:57:52.979Z,3.78
2023-05-14T16:00:23.007Z,4.40
2023-05-14T16:02:51.372Z,4.53
2023-05-14T16:05:19.419Z,3.17
2023-05-14T16:07:47.547Z,7.70
2023-05-14T16:10:15.471Z,3.20
2023-05-14T16:12:43.368Z,3.30
2023-05-14T16:15:12.234Z,3.65
2023-05-14T16:17:41.880Z,3.33
2023-05-14T16:20:10.801Z,4.28
2023-05-14T16:22:38.899Z,5.45
2023-05-14T16:25:07.366Z,5.88
2023-05-14T16:27:35.866Z,3.17
2023-05-14T16:30:04.503Z,2.65
2023-05-14T16:32:32.462Z,7.82
2023-05-14T16:35:02.776Z,3.22
2023-05-14T16:37:30.915Z,2.35
2023-05-14T16:39:58.842Z,3.10
2023-05-14T16:42:26.796Z,2.80
2023-05-14T16:44:54.716Z,3.95
2023-05-14T16:47:22.695Z,3.05
2023-05-14T16:49:50.651Z,2.25
2023-05-14T16:52:20.006Z,2.47
2023-05-14T16:54:47.955Z,2.22
2023-05-14T16:57:15.870Z,3.38
2023-05-14T16:59:43.887Z,4.80
2023-05-14T17:02:11.840Z,2.45
2023-05-14T17:04:42.153Z,4.07
2023-05-14T17:07:10.271Z,2.78
2023-05-14T17:09:39.560Z,2.30
2023-05-14T17:12:08.335Z,4.60
2023-05-14T17:14:36.289Z,2.15
2023-05-14T17:17:04.702Z,3.10
2023-05-14T17:19:32.652Z,2.50
2023-05-14T17:22:00.749Z,2.50
2023-05-14T17:24:28.744Z,4.53
2023-05-14T17:26:58.056Z,2.30
2023-05-14T17:29:26.301Z,2.55
2023-05-14T17:31:54.718Z,2.10
2023-05-14T17:34:22.954Z,3.28
2023-05-14T17:36:50.981Z,2.75
2023-05-14T17:39:18.875Z,3.05
2023-05-14T17:41:46.800Z,4.18
2023-05-14T17:44:16.103Z,4.00
2023-05-14T17:46:44.917Z,5.60
2023-05-14T17:49:13.013Z,4.20
2023-05-14T17:51:40.950Z,4.72
2023-05-14T17:54:09.014Z,2.80
2023-05-14T17:56:36.980Z,5.03
2023-05-14T17:59:04.940Z,2.33
2023-05-14T18:01:34.313Z,3.28
2023-05-14T18:04:02.321Z,3.30
2023-05-14T18:06:30.333Z,3.35
2023-05-14T18:08:58.212Z,3.35
2023-05-14T18:11:26.302Z,3.50
2023-05-14T18:13:54.174Z,2.78
2023-05-14T18:16:22.113Z,2.88
2023-05-14T18:18:51.558Z,3.65
2023-05-14T18:21:19.544Z,3.45
2023-05-14T18:23:47.416Z,3.88
2023-05-14T18:26:15.356Z,3.25
2023-05-14T18:28:43.253Z,3.15
2023-05-14T18:31:11.247Z,2.38
2023-05-14T18:33:39.862Z,2.88
2023-05-14T18:36:09.222Z,2.65
2023-05-14T18:38:37.148Z,3.53
2023-05-14T18:41:05.285Z,4.32
2023-05-14T18:43:33.180Z,3.35
2023-05-14T18:46:01.179Z,6.28
2023-05-14T18:48:29.181Z,2.85
2023-05-14T18:50:57.080Z,2.72
2023-05-14T18:53:27.299Z,3.08
2023-05-14T18:55:55.243Z,2.90
2023-05-14T18:58:25.844Z,3.40
2023-05-14T19:00:53.759Z,3.90
2023-05-14T19:03:21.759Z,3.28
2023-05-14T19:05:50.695Z,3.10
2023-05-14T19:08:18.755Z,3.40
2023-05-14T19:10:48.555Z,3.53
2023-05-14T19:13:17.021Z,2.70
2023-05-14T19:15:44.962Z,4.15
2023-05-14T19:18:13.927Z,3.27
2023-05-14T19:20:42.559Z,4.50
2023-05-14T19:23:10.443Z,4.37
2023-05-14T19:25:38.339Z,3.57
2023-05-14T19:28:07.820Z,2.77
2023-05-14T19:30:35.763Z,3.10
2023-05-14T19:33:04.542Z,2.77
2023-05-14T19:35:32.668Z,2.57
2023-05-14T19:38:00.562Z,3.60
2023-05-14T19:40:30.637Z,3.37
2023-05-14T19:43:01.509Z,5.50
2023-05-14T19:45:31.192Z,2.43
2023-05-14T19:47:59.297Z,2.53
2023-05-14T19:50:27.307Z,3.13
2023-05-14T19:52:56.717Z,3.43
2023-05-14T19:55:24.775Z,3.50
2023-05-14T19:57:52.894Z,3.53
2023-05-14T20:00:20.820Z,6.10
2023-05-14T20:02:50.477Z,6.67
2023-05-14T20:05:18.678Z,6.83
2023-05-14T20:07:47.145Z,3.83
2023-05-14T20:10:15.368Z,4.93
2023-05-14T20:12:43.253Z,3.50
2023-05-14T20:15:11.857Z,3.70
2023-05-14T20:17:39.927Z,4.07
2023-05-14T20:20:10.518Z,2.73
2023-05-14T20:22:40.050Z,2.93
2023-05-14T20:25:09.039Z,3.00
2023-05-14T20:27:36.962Z,3.00
2023-05-14T20:30:05.668Z,3.17
2023-05-14T20:32:33.619Z,4.27
2023-05-14T20:35:02.305Z,4.50
2023-05-14T20:37:32.612Z,3.00
2023-05-14T20:40:01.150Z,3.13
2023-05-14T20:42:29.706Z,3.10
2023-05-14T20:44:57.617Z,2.57
2023-05-14T20:47:26.829Z,3.17
2023-05-14T20:49:54.787Z,3.00
2023-05-14T20:52:22.713Z,2.67
2023-05-14T20:54:52.180Z,2.60
2023-05-14T20:57:20.485Z,3.23
2023-05-14T20:59:49.004Z,3.00
2023-05-14T21:02:17.101Z,2.70
2023-05-14T21:04:45.283Z,2.80
2023-05-14T21:07:13.283Z,2.67
2023-05-14T21:09:41.214Z,3.30
2023-05-14T21:12:11.286Z,3.27
2023-05-14T21:14:57.830Z,3.70
2023-05-14T21:17:25.944Z,3.57
2023-05-14T21:19:53.866Z,4.50
2023-05-14T21:22:22.715Z,4.23
2023-05-14T21:24:51.151Z,4.47
2023-05-14T21:27:20.540Z,3.17
2023-05-14T21:29:48.417Z,4.87
2023-05-14T21:32:16.303Z,3.10
2023-05-14T21:34:44.614Z,3.80
2023-05-14T21:37:12.571Z,4.37
2023-05-14T21:39:40.477Z,3.93
2023-05-14T21:42:09.184Z,4.77
2023-05-14T21:44:38.468Z,3.47
2023-05-14T21:47:06.926Z,4.40
2023-05-14T21:49:35.536Z,3.20
2023-05-14T21:52:03.622Z,3.20
2023-05-14T21:54:31.569Z,4.23
2023-05-14T21:56:59.606Z,3.27
2023-05-14T21:59:27.486Z,3.90
2023-05-14T22:02:06.712Z,5.43
2023-05-14T22:04:35.617Z,3.00
2023-05-14T22:07:03.631Z,4.77
2023-05-14T22:09:31.591Z,3.77
2023-05-14T22:11:59.545Z,4.97
2023-05-14T22:14:27.661Z,3.67
2023-05-14T22:16:57.030Z,4.07
2023-05-14T22:19:25.784Z,3.83
2023-05-14T22:21:53.686Z,4.90
2023-05-14T22:24:21.595Z,4.87
2023-05-14T22:26:49.469Z,3.57
2023-05-14T22:29:17.387Z,3.37
2023-05-14T22:31:45.376Z,3.37
2023-05-14T22:34:14.745Z,5.33
2023-05-14T22:36:42.706Z,4.13
2023-05-14T22:39:12.143Z,4.57
2023-05-14T22:41:41.277Z,3.53
2023-05-14T22:44:09.188Z,3.77
2023-05-14T22:46:37.121Z,2.97
2023-05-14T22:49:05.069Z,7.00
2023-05-14T22:51:34.343Z,3.67
2023-05-14T22:54:02.250Z,4.10
2023-05-14T22:56:30.190Z,4.10
2023-05-14T22:59:00.277Z,4.83
2023-05-14T23:01:28.462Z,3.87
2023-05-14T23:03:56.581Z,3.50
2023-05-14T23:06:25.590Z,3.67
2023-05-14T23:08:54.869Z,4.13
2023-05-14T23:11:22.919Z,5.80
2023-05-14T23:13:51.319Z,5.03
2023-05-14T23:16:19.348Z,4.03
2023-05-14T23:18:47.427Z,4.43
2023-05-14T23:21:15.521Z,3.00
2023-05-14T23:23:43.444Z,3.50
2023-05-14T23:26:12.734Z,4.30
2023-05-14T23:28:41.159Z,3.70
2023-05-14T23:31:09.118Z,3.30
2023-05-14T23:33:37.054Z,3.47
2023-05-14T23:36:05.388Z,3.30
2023-05-14T23:38:33.280Z,3.93
2023-05-14T23:41:01.183Z,3.47
2023-05-14T23:43:30.603Z,3.70
2023-05-14T23:45:58.542Z,3.80
2023-05-14T23:48:26.701Z,4.80
2023-05-14T23:50:54.592Z,4.27
2023-05-14T23:53:22.483Z,4.30
2023-05-14T23:55:50.418Z,3.13
2023-05-14T23:58:18.407Z,3.33
